Time;durP1;ratioP1;P1;durP2;ratioP2;P2;SDS_P1;SDS_P2;PMS_P1;PMS_P2;Temp;Humidity;BMP_temperature;BMP_pressure;BME280_temperature;BME280_humidity;BME280_pressure;Samples;Min_cycle;Max_cycle;Signal;HPM_P1;HPM_P2
2023/04/16 00:01:00;;;;;;;17.23;5.70;;;;;;;;;;5041386;28;20044;-69
2023/04/16 00:03:26;;;;;;;17.52;5.95;;;;;;;;;;5032181;28;20105;-68
2023/04/16 00:05:54;;;;;;;11.80;5.18;;;;;;;;;;5046603;28;20581;-69
2023/04/16 00:08:20;;;;;;;15.13;6.05;;;;;;;;;;5037346;28;20036;-67
2023/04/16 00:10:45;;;;;;;16.05;4.90;;;;;;;;;;5045194;28;20128;-69
2023/04/16 00:13:11;;;;;;;17.27;5.18;;;;;;;;;;5044609;28;20128;-69
2023/04/16 00:15:36;;;;;;;14.68;4.80;;;;;;;;;;5043082;28;20422;-68
2023/04/16 00:18:02;;;;;;;14.18;5.40;;;;;;;;;;5041805;28;20865;-68
2023/04/16 00:20:27;;;;;;;16.00;6.13;;;;;;;;;;5029077;28;20037;-68
2023/04/16 00:22:52;;;;;;;11.10;4.75;;;;;;;;;;5033095;28;20470;-68
2023/04/16 00:25:17;;;;;;;13.18;4.28;;;;;;;;;;5029463;28;20029;-69
2023/04/16 00:27:43;;;;;;;19.17;7.93;;;;;;;;;;5033201;28;20096;-68
2023/04/16 00:30:08;;;;;;;26.50;6.60;;;;;;;;;;5042895;28;20024;-68
2023/04/16 00:32:33;;;;;;;16.95;6.97;;;;;;;;;;5043598;28;20056;-68
2023/04/16 00:34:59;;;;;;;13.38;4.95;;;;;;;;;;5043196;28;20036;-68
2023/04/16 00:37:24;;;;;;;7.47;3.53;;;;;;;;;;5036559;28;20143;-68
2023/04/16 00:39:49;;;;;;;19.60;6.15;;;;;;;;;;5038785;28;20084;-68
2023/04/16 00:42:15;;;;;;;13.30;4.55;;;;;;;;;;5035577;28;20056;-68
2023/04/16 00:44:40;;;;;;;10.38;4.70;;;;;;;;;;5040047;28;20063;-68
2023/04/16 00:47:06;;;;;;;15.60;5.57;;;;;;;;;;5044452;28;20044;-68
2023/04/16 00:49:32;;;;;;;9.98;4.15;;;;;;;;;;5039501;28;20041;-68
2023/04/16 00:51:57;;;;;;;13.40;5.07;;;;;;;;;;5042018;28;20037;-68
2023/04/16 00:54:25;;;;;;;13.77;4.50;;;;;;;;;;5041578;28;20025;-68
2023/04/16 00:56:50;;;;;;;11.35;4.68;;;;;;;;;;5029260;28;20716;-68
2023/04/16 00:59:16;;;;;;;12.55;4.07;;;;;;;;;;5044097;28;20029;-68
2023/04/16 01:01:41;;;;;;;11.70;4.03;;;;;;;;;;5031151;28;20033;-68
2023/04/16 01:04:07;;;;;;;11.88;4.63;;;;;;;;;;5036963;28;20034;-68
2023/04/16 01:06:32;;;;;;;15.13;4.63;;;;;;;;;;5028434;28;20061;-68
2023/04/16 01:08:58;;;;;;;13.50;3.60;;;;;;;;;;5035969;28;20020;-68
2023/04/16 01:11:23;;;;;;;12.15;5.10;;;;;;;;;;5034311;28;20025;-68
2023/04/16 01:13:49;;;;;;;10.70;3.90;;;;;;;;;;5046385;28;20025;-68
2023/04/16 01:16:14;;;;;;;15.48;4.82;;;;;;;;;;5048267;28;20044;-68
2023/04/16 01:18:39;;;;;;;9.95;4.30;;;;;;;;;;5046916;28;20107;-68
2023/04/16 01:21:05;;;;;;;11.48;4.13;;;;;;;;;;5037195;28;20117;-68
2023/04/16 01:23:30;;;;;;;13.93;4.78;;;;;;;;;;5038138;28;20120;-68
2023/04/16 01:25:56;;;;;;;9.52;3.90;;;;;;;;;;5041873;28;20107;-68
2023/04/16 01:28:21;;;;;;;10.70;4.70;;;;;;;;;;5046481;28;20037;-68
2023/04/16 01:30:47;;;;;;;15.63;5.78;;;;;;;;;;5050286;28;20096;-68
2023/04/16 01:33:13;;;;;;;9.82;3.92;;;;;;;;;;5042374;28;20025;-68
2023/04/16 01:35:42;;;;;;;13.57;4.43;;;;;;;;;;5047092;28;20120;-68
2023/04/16 01:38:09;;;;;;;11.38;4.18;;;;;;;;;;5048302;28;20028;-68
2023/04/16 01:40:35;;;;;;;10.68;4.15;;;;;;;;;;5046092;28;20033;-68
2023/04/16 01:43:00;;;;;;;11.90;5.13;;;;;;;;;;5034140;28;20062;-68
2023/04/16 01:45:25;;;;;;;10.60;3.60;;;;;;;;;;5047356;28;20021;-68
2023/04/16 01:47:51;;;;;;;10.15;3.55;;;;;;;;;;5047764;28;20037;-68
2023/04/16 01:50:17;;;;;;;8.02;3.58;;;;;;;;;;5033622;28;20029;-68
2023/04/16 01:52:43;;;;;;;7.53;4.07;;;;;;;;;;5038441;28;20037;-68
2023/04/16 01:55:09;;;;;;;9.48;3.45;;;;;;;;;;5044940;28;20044;-68
2023/04/16 01:57:34;;;;;;;11.10;3.88;;;;;;;;;;5037883;28;20459;-68
2023/04/16 01:59:59;;;;;;;7.65;3.50;;;;;;;;;;5044304;28;20032;-68
2023/04/16 02:02:27;;;;;;;12.90;3.70;;;;;;;;;;5042936;28;20033;-68
2023/04/16 02:04:53;;;;;;;14.05;4.47;;;;;;;;;;5035310;28;20049;-68
2023/04/16 02:07:18;;;;;;;9.68;3.60;;;;;;;;;;5043310;28;20041;-68
2023/04/16 02:09:43;;;;;;;17.75;4.43;;;;;;;;;;5045944;28;20079;-68
2023/04/16 02:12:10;;;;;;;11.50;3.20;;;;;;;;;;5037410;28;20025;-68
2023/04/16 02:14:36;;;;;;;12.95;3.55;;;;;;;;;;5029183;28;20029;-68
2023/04/16 02:17:02;;;;;;;5.00;2.97;;;;;;;;;;5032156;28;20679;-68
2023/04/16 02:19:27;;;;;;;6.68;3.35;;;;;;;;;;5033180;28;20036;-68
2023/04/16 02:21:53;;;;;;;11.15;4.25;;;;;;;;;;5046746;28;20025;-68
2023/04/16 02:24:19;;;;;;;6.05;2.92;;;;;;;;;;5042382;28;20029;-68
2023/04/16 02:26:44;;;;;;;9.18;3.40;;;;;;;;;;5037885;28;20063;-68
2023/04/16 02:29:10;;;;;;;9.32;3.17;;;;;;;;;;5039613;28;20047;-68
2023/04/16 02:31:36;;;;;;;9.68;3.13;;;;;;;;;;5026036;28;20034;-68
2023/04/16 02:34:02;;;;;;;8.63;3.15;;;;;;;;;;5039590;28;20541;-68
2023/04/16 02:36:27;;;;;;;9.85;3.20;;;;;;;;;;5030888;28;20028;-68
2023/04/16 02:38:52;;;;;;;6.88;3.22;;;;;;;;;;5034329;28;20009;-68
2023/04/16 02:41:18;;;;;;;14.70;4.70;;;;;;;;;;5039610;28;20025;-68
2023/04/16 02:43:43;;;;;;;8.05;3.08;;;;;;;;;;5026168;28;20435;-68
2023/04/16 02:46:08;;;;;;;9.30;3.65;;;;;;;;;;5036010;28;20653;-68
2023/04/16 02:48:34;;;;;;;12.18;3.95;;;;;;;;;;5033300;28;20037;-68
2023/04/16 02:51:00;;;;;;;10.65;3.88;;;;;;;;;;5030281;28;20025;-68
2023/04/16 02:53:25;;;;;;;11.82;3.70;;;;;;;;;;5045087;28;20036;-68
2023/04/16 02:55:51;;;;;;;13.63;4.28;;;;;;;;;;5052211;28;20871;-68
2023/04/16 02:58:18;;;;;;;6.13;3.28;;;;;;;;;;5032488;28;20037;-68
2023/04/16 03:00:43;;;;;;;14.65;4.05;;;;;;;;;;5038948;28;20092;-70
2023/04/16 03:03:09;;;;;;;10.63;3.45;;;;;;;;;;5039589;28;20032;-69
2023/04/16 03:05:34;;;;;;;8.57;4.07;;;;;;;;;;5044168;28;20087;-69
2023/04/16 03:07:59;;;;;;;9.05;4.15;;;;;;;;;;5041006;28;20037;-68
2023/04/16 03:10:25;;;;;;;11.05;3.83;;;;;;;;;;5031858;28;20038;-68
2023/04/16 03:12:50;;;;;;;14.32;4.30;;;;;;;;;;5038382;28;20037;-68
2023/04/16 03:15:16;;;;;;;9.38;3.92;;;;;;;;;;5043960;28;20029;-68
2023/04/16 03:17:41;;;;;;;12.82;4.25;;;;;;;;;;5036059;28;20046;-68
2023/04/16 03:20:08;;;;;;;8.48;4.03;;;;;;;;;;5025908;28;20393;-68
2023/04/16 03:22:33;;;;;;;13.20;4.10;;;;;;;;;;5039017;28;20076;-68
2023/04/16 03:24:58;;;;;;;7.35;3.85;;;;;;;;;;5034963;28;20451;-68
2023/04/16 03:27:23;;;;;;;7.15;3.60;;;;;;;;;;5041883;28;20010;-68
2023/04/16 03:29:49;;;;;;;9.75;4.15;;;;;;;;;;5043300;28;20028;-68
2023/04/16 03:32:14;;;;;;;11.15;3.78;;;;;;;;;;5041766;28;20036;-68
2023/04/16 03:34:40;;;;;;;10.70;3.80;;;;;;;;;;5034206;28;20530;-68
2023/04/16 03:37:05;;;;;;;6.85;3.97;;;;;;;;;;5039143;28;20044;-68
2023/04/16 03:39:32;;;;;;;10.30;4.50;;;;;;;;;;5045259;28;20153;-68
2023/04/16 03:41:57;;;;;;;12.18;4.35;;;;;;;;;;5044726;28;20025;-68
2023/04/16 03:44:22;;;;;;;9.82;3.17;;;;;;;;;;5038023;28;20098;-69
2023/04/16 03:46:48;;;;;;;8.77;3.47;;;;;;;;;;5045205;28;20035;-68
2023/04/16 03:49:13;;;;;;;7.97;3.95;;;;;;;;;;5040022;28;20033;-68
2023/04/16 03:51:38;;;;;;;8.13;3.03;;;;;;;;;;5043039;28;20580;-68
2023/04/16 03:54:04;;;;;;;7.88;4.13;;;;;;;;;;5044509;28;20017;-68
2023/04/16 03:56:29;;;;;;;10.38;4.75;;;;;;;;;;5044760;28;20136;-68
2023/04/16 03:58:54;;;;;;;9.27;4.80;;;;;;;;;;5044735;28;20082;-68
2023/04/16 04:01:20;;;;;;;14.57;4.55;;;;;;;;;;5044449;28;20569;-68
2023/04/16 04:03:45;;;;;;;8.00;3.63;;;;;;;;;;5031573;28;20123;-68
2023/04/16 04:06:10;;;;;;;6.85;3.63;;;;;;;;;;5043790;28;20066;-68
2023/04/16 04:08:35;;;;;;;9.70;3.47;;;;;;;;;;5044824;28;20036;-68
2023/04/16 04:11:01;;;;;;;13.07;4.18;;;;;;;;;;5031576;28;20041;-68
2023/04/16 04:13:26;;;;;;;8.85;4.13;;;;;;;;;;5041488;28;20403;-68
2023/04/16 04:15:51;;;;;;;11.38;4.07;;;;;;;;;;5031255;28;20040;-68
2023/04/16 04:18:17;;;;;;;10.63;4.05;;;;;;;;;;5042919;28;20045;-68
2023/04/16 04:20:43;;;;;;;13.15;5.32;;;;;;;;;;5034372;28;20037;-68
2023/04/16 04:23:08;;;;;;;15.38;4.53;;;;;;;;;;5043845;28;20628;-68
2023/04/16 04:25:34;;;;;;;10.90;4.60;;;;;;;;;;5041370;28;20037;-68
2023/04/16 04:27:59;;;;;;;9.80;4.63;;;;;;;;;;5024753;28;20022;-68
2023/04/16 04:30:25;;;;;;;12.18;4.63;;;;;;;;;;5034597;28;20107;-68
2023/04/16 04:32:50;;;;;;;19.02;5.32;;;;;;;;;;5041074;28;20104;-68
2023/04/16 04:35:15;;;;;;;11.88;3.72;;;;;;;;;;5043875;28;20102;-68
2023/04/16 04:37:41;;;;;;;9.35;3.78;;;;;;;;;;5041885;28;20049;-69
2023/04/16 04:40:07;;;;;;;11.05;4.32;;;;;;;;;;5037785;28;20033;-68
2023/04/16 04:42:32;;;;;;;10.63;4.82;;;;;;;;;;5033366;28;20033;-68
2023/04/16 04:44:57;;;;;;;14.40;5.13;;;;;;;;;;5049136;28;20815;-68
2023/04/16 04:47:22;;;;;;;9.43;3.80;;;;;;;;;;5045577;28;20033;-68
2023/04/16 04:49:48;;;;;;;7.53;3.08;;;;;;;;;;5048020;28;20099;-68
2023/04/16 04:52:13;;;;;;;14.18;4.47;;;;;;;;;;5031966;28;20529;-68
2023/04/16 04:54:40;;;;;;;8.90;4.10;;;;;;;;;;5036545;28;20120;-68
2023/04/16 04:57:06;;;;;;;16.05;4.85;;;;;;;;;;5031809;28;20028;-68
2023/04/16 04:59:31;;;;;;;11.20;4.07;;;;;;;;;;5037941;28;20040;-68
2023/04/16 05:01:57;;;;;;;12.95;5.45;;;;;;;;;;5034938;28;20033;-68
2023/04/16 05:04:22;;;;;;;10.85;4.55;;;;;;;;;;5042733;28;20072;-68
2023/04/16 05:06:47;;;;;;;15.30;4.60;;;;;;;;;;5043719;28;20037;-68
2023/04/16 05:09:12;;;;;;;10.43;4.82;;;;;;;;;;5046731;28;20021;-68
2023/04/16 05:11:38;;;;;;;10.55;3.50;;;;;;;;;;5047904;28;20059;-68
2023/04/16 05:14:03;;;;;;;12.23;4.93;;;;;;;;;;5044759;28;20047;-68
2023/04/16 05:16:29;;;;;;;12.70;4.03;;;;;;;;;;5046337;28;20040;-68
2023/04/16 05:18:54;;;;;;;10.85;4.38;;;;;;;;;;5047537;28;20032;-68
2023/04/16 05:21:20;;;;;;;8.93;4.30;;;;;;;;;;5046059;28;20142;-68
2023/04/16 05:23:46;;;;;;;7.45;3.10;;;;;;;;;;5048020;28;20025;-68
2023/04/16 05:26:11;;;;;;;5.57;3.10;;;;;;;;;;5028375;28;20042;-68
2023/04/16 05:28:36;;;;;;;7.05;3.25;;;;;;;;;;5041161;28;20550;-69
2023/04/16 05:31:02;;;;;;;7.45;2.67;;;;;;;;;;5040561;28;20649;-68
2023/04/16 05:33:27;;;;;;;6.72;2.83;;;;;;;;;;5047548;28;20406;-68
2023/04/16 05:35:52;;;;;;;6.13;2.88;;;;;;;;;;5030135;28;20095;-68
2023/04/16 05:38:17;;;;;;;6.32;3.28;;;;;;;;;;5048935;28;20554;-68
2023/04/16 05:40:43;;;;;;;6.88;3.58;;;;;;;;;;5041277;28;20805;-68
2023/04/16 05:43:08;;;;;;;9.05;3.00;;;;;;;;;;5039394;28;20064;-68
2023/04/16 05:45:38;;;;;;;2.80;1.88;;;;;;;;;;5038835;28;20099;-68
2023/04/16 05:48:04;;;;;;;9.60;3.90;;;;;;;;;;5027723;28;20045;-69
2023/04/16 05:50:30;;;;;;;5.85;3.08;;;;;;;;;;5026586;28;20082;-69
2023/04/16 05:52:55;;;;;;;6.90;2.40;;;;;;;;;;5027422;28;20505;-68
2023/04/16 05:55:20;;;;;;;8.98;3.92;;;;;;;;;;5042095;28;20057;-69
2023/04/16 05:57:45;;;;;;;11.30;4.05;;;;;;;;;;5045598;28;20037;-68
2023/04/16 06:00:11;;;;;;;9.23;3.85;;;;;;;;;;5045946;28;20024;-68
2023/04/16 06:02:36;;;;;;;6.38;2.58;;;;;;;;;;5045805;28;20036;-69
2023/04/16 06:05:02;;;;;;;8.15;3.13;;;;;;;;;;5045148;28;20056;-68
2023/04/16 06:07:27;;;;;;;7.25;3.30;;;;;;;;;;5040182;28;20055;-68
2023/04/16 06:09:52;;;;;;;9.63;3.67;;;;;;;;;;5036555;28;20033;-68
2023/04/16 06:12:18;;;;;;;8.00;3.20;;;;;;;;;;5047536;28;20028;-68
2023/04/16 06:14:43;;;;;;;10.20;3.08;;;;;;;;;;5039493;28;20035;-70
2023/04/16 06:17:08;;;;;;;8.75;3.05;;;;;;;;;;5046776;28;20033;-69
2023/04/16 06:19:33;;;;;;;6.22;3.20;;;;;;;;;;5026368;28;20561;-69
2023/04/16 06:21:59;;;;;;;11.02;2.92;;;;;;;;;;5040455;28;20032;-68
2023/04/16 06:24:24;;;;;;;9.32;3.33;;;;;;;;;;5045249;28;20032;-68
2023/04/16 06:26:49;;;;;;;7.20;2.10;;;;;;;;;;5044932;28;20021;-68
2023/04/16 06:29:15;;;;;;;4.43;2.50;;;;;;;;;;5040148;28;20525;-68
2023/04/16 06:31:40;;;;;;;8.55;3.33;;;;;;;;;;5045224;28;20574;-69
2023/04/16 06:34:05;;;;;;;6.35;2.60;;;;;;;;;;5044251;28;20059;-68
2023/04/16 06:36:31;;;;;;;4.13;2.55;;;;;;;;;;5040765;28;20032;-68
2023/04/16 06:38:56;;;;;;;3.95;2.13;;;;;;;;;;5045037;28;20055;-68
2023/04/16 06:41:24;;;;;;;6.18;2.50;;;;;;;;;;5033348;28;20043;-68
2023/04/16 06:43:49;;;;;;;10.68;3.15;;;;;;;;;;5029879;28;20184;-68
2023/04/16 06:46:15;;;;;;;8.73;3.55;;;;;;;;;;5041183;28;20045;-68
2023/04/16 06:48:40;;;;;;;6.15;3.17;;;;;;;;;;5045877;28;20032;-68
2023/04/16 06:51:05;;;;;;;6.25;3.10;;;;;;;;;;5042218;28;20074;-69
2023/04/16 06:53:31;;;;;;;12.35;3.80;;;;;;;;;;5042851;28;20058;-69
2023/04/16 06:55:56;;;;;;;9.13;4.18;;;;;;;;;;5025585;28;20045;-69
2023/04/16 06:58:21;;;;;;;4.53;3.15;;;;;;;;;;5026591;28;20469;-69
2023/04/16 07:00:47;;;;;;;11.35;5.13;;;;;;;;;;5041498;28;20053;-69
2023/04/16 07:03:13;;;;;;;12.05;4.95;;;;;;;;;;5039280;28;20029;-68
2023/04/16 07:05:38;;;;;;;7.40;3.35;;;;;;;;;;5047413;28;20044;-68
2023/04/16 07:08:03;;;;;;;13.90;4.43;;;;;;;;;;5040686;28;20118;-69
2023/04/16 07:10:29;;;;;;;10.60;4.60;;;;;;;;;;5038816;28;20771;-69
2023/04/16 07:12:54;;;;;;;11.10;5.13;;;;;;;;;;5032063;28;20049;-69
2023/04/16 07:15:20;;;;;;;10.35;4.30;;;;;;;;;;5047242;28;20024;-68
2023/04/16 07:17:45;;;;;;;13.30;4.57;;;;;;;;;;5026278;28;20031;-69
2023/04/16 07:20:10;;;;;;;10.23;4.57;;;;;;;;;;5025211;28;20045;-69
2023/04/16 07:22:36;;;;;;;13.15;5.20;;;;;;;;;;5028651;28;20037;-69
2023/04/16 07:25:01;;;;;;;9.50;4.10;;;;;;;;;;5041321;28;20037;-69
2023/04/16 07:27:26;;;;;;;10.95;4.50;;;;;;;;;;5054200;28;20064;-68
2023/04/16 07:29:53;;;;;;;13.10;5.45;;;;;;;;;;5024319;28;20572;-69
2023/04/16 07:32:19;;;;;;;13.05;6.05;;;;;;;;;;5042008;28;20072;-69
2023/04/16 07:34:44;;;;;;;13.15;4.95;;;;;;;;;;5029887;28;20427;-69
2023/04/16 07:37:10;;;;;;;14.95;6.30;;;;;;;;;;5033007;28;20044;-68
2023/04/16 07:39:35;;;;;;;11.10;5.47;;;;;;;;;;5037937;28;20075;-69
2023/04/16 07:42:01;;;;;;;11.52;5.85;;;;;;;;;;5037603;28;20171;-69
2023/04/16 07:44:26;;;;;;;14.55;6.93;;;;;;;;;;5035803;28;21128;-69
2023/04/16 07:46:51;;;;;;;21.80;5.85;;;;;;;;;;5031784;28;20037;-69
2023/04/16 07:49:17;;;;;;;14.90;5.68;;;;;;;;;;5039189;28;20044;-69
2023/04/16 07:51:42;;;;;;;14.65;5.35;;;;;;;;;;5033420;28;20045;-69
2023/04/16 07:54:08;;;;;;;14.57;5.60;;;;;;;;;;5036721;28;20075;-69
2023/04/16 07:56:34;;;;;;;19.25;6.82;;;;;;;;;;5036641;28;20037;-69
2023/04/16 07:58:59;;;;;;;18.90;6.32;;;;;;;;;;5034766;28;20037;-68
2023/04/16 08:01:24;;;;;;;16.40;5.93;;;;;;;;;;5038168;28;20111;-69
2023/04/16 08:03:50;;;;;;;18.98;5.80;;;;;;;;;;5034629;28;20036;-69
2023/04/16 08:06:15;;;;;;;14.98;5.85;;;;;;;;;;5032894;28;20033;-69
2023/04/16 08:08:41;;;;;;;15.10;4.97;;;;;;;;;;5031120;28;20040;-69
2023/04/16 08:11:07;;;;;;;9.63;3.72;;;;;;;;;;5031007;28;20041;-69
2023/04/16 08:13:32;;;;;;;13.07;4.82;;;;;;;;;;5040387;28;20033;-69
2023/04/16 08:15:58;;;;;;;14.02;6.03;;;;;;;;;;5032948;28;20048;-69
2023/04/16 08:18:23;;;;;;;10.60;5.57;;;;;;;;;;5036310;28;20051;-69
2023/04/16 08:20:48;;;;;;;18.65;8.13;;;;;;;;;;5035625;28;20021;-69
2023/04/16 08:23:14;;;;;;;11.43;4.30;;;;;;;;;;5040419;28;20170;-69
2023/04/16 08:25:39;;;;;;;15.77;6.38;;;;;;;;;;5043519;28;20568;-69
2023/04/16 08:28:04;;;;;;;10.38;4.78;;;;;;;;;;5042383;28;20067;-69
2023/04/16 08:30:30;;;;;;;13.68;5.35;;;;;;;;;;5029044;28;20906;-69
2023/04/16 08:32:55;;;;;;;11.13;5.20;;;;;;;;;;5035394;28;20040;-69
2023/04/16 08:35:21;;;;;;;12.35;5.68;;;;;;;;;;5026439;28;20033;-69
2023/04/16 08:37:46;;;;;;;13.93;6.07;;;;;;;;;;5033752;28;20403;-70
2023/04/16 08:40:11;;;;;;;13.77;5.35;;;;;;;;;;5040281;28;20045;-70
2023/04/16 08:43:04;;;;;;;12.68;5.13;;;;;;;;;;5037590;28;20024;-69
2023/04/16 08:45:33;;;;;;;8.45;4.35;;;;;;;;;;5036476;28;20798;-68
2023/04/16 08:48:00;;;;;;;12.73;4.80;;;;;;;;;;5038910;28;20438;-69
2023/04/16 08:50:27;;;;;;;9.38;4.85;;;;;;;;;;5028715;28;20033;-69
2023/04/16 08:52:55;;;;;;;11.55;4.53;;;;;;;;;;5041065;28;20063;-69
2023/04/16 08:55:25;;;;;;;10.52;4.88;;;;;;;;;;5037465;28;20036;-69
2023/04/16 08:57:53;;;;;;;13.05;4.93;;;;;;;;;;5035147;28;20041;-69
2023/04/16 09:00:20;;;;;;;11.48;4.90;;;;;;;;;;5036950;28;20033;-69
2023/04/16 09:02:45;;;;;;;9.38;4.15;;;;;;;;;;5032997;28;20721;-68
2023/04/16 09:05:17;;;;;;;10.20;4.93;;;;;;;;;;5039460;28;20056;-69
2023/04/16 09:07:45;;;;;;;12.35;4.97;;;;;;;;;;5039814;28;20478;-69
2023/04/16 09:10:11;;;;;;;6.47;3.42;;;;;;;;;;5033624;28;20037;-69
2023/04/16 09:12:37;;;;;;;10.55;4.97;;;;;;;;;;5029117;28;20032;-70
2023/04/16 09:15:04;;;;;;;6.85;3.67;;;;;;;;;;5032899;28;20033;-69
2023/04/16 09:17:30;;;;;;;14.15;4.55;;;;;;;;;;5040548;28;20029;-69
2023/04/16 09:19:55;;;;;;;13.02;5.03;;;;;;;;;;5044672;28;20030;-69
2023/04/16 09:22:20;;;;;;;12.73;5.00;;;;;;;;;;5043083;28;20171;-69
2023/04/16 09:24:46;;;;;;;16.80;6.30;;;;;;;;;;5036747;28;20044;-69
2023/04/16 09:27:12;;;;;;;10.02;3.97;;;;;;;;;;5042117;28;20104;-70
2023/04/16 09:29:40;;;;;;;9.88;4.97;;;;;;;;;;5042520;28;20033;-69
2023/04/16 09:32:10;;;;;;;11.18;4.25;;;;;;;;;;5038917;28;20086;-69
2023/04/16 09:34:57;;;;;;;15.20;5.93;;;;;;;;;;5046827;28;20033;-71
2023/04/16 09:37:24;;;;;;;14.45;5.93;;;;;;;;;;5060900;28;20045;-70
2023/04/16 09:39:55;;;;;;;13.13;6.07;;;;;;;;;;5026911;28;20034;-70
2023/04/16 09:42:26;;;;;;;14.13;6.65;;;;;;;;;;5041067;28;20084;-70
2023/04/16 09:44:51;;;;;;;11.73;5.18;;;;;;;;;;5048120;28;20042;-70
2023/04/16 09:47:17;;;;;;;15.05;5.95;;;;;;;;;;5050976;28;20033;-70
2023/04/16 09:49:43;;;;;;;11.63;5.05;;;;;;;;;;5050590;28;20033;-70
2023/04/16 09:52:16;;;;;;;11.75;5.20;;;;;;;;;;5045306;28;20045;-70
2023/04/16 09:54:51;;;;;;;12.13;5.80;;;;;;;;;;5046947;28;20095;-70
2023/04/16 09:57:19;;;;;;;10.65;5.00;;;;;;;;;;5046825;28;20070;-70
2023/04/16 09:59:45;;;;;;;14.23;5.50;;;;;;;;;;5039934;28;20631;-70
2023/04/16 10:02:11;;;;;;;12.70;5.72;;;;;;;;;;5046363;28;20033;-70
2023/04/16 10:04:47;;;;;;;12.73;5.63;;;;;;;;;;5042520;28;20057;-70
2023/04/16 10:07:12;;;;;;;11.52;5.35;;;;;;;;;;5043189;28;20041;-69
2023/04/16 10:09:38;;;;;;;11.93;4.97;;;;;;;;;;5040383;28;20075;-69
2023/04/16 10:12:05;;;;;;;16.58;6.47;;;;;;;;;;5026120;28;20108;-69
2023/04/16 10:14:31;;;;;;;14.93;5.78;;;;;;;;;;5025640;28;20036;-69
2023/04/16 10:16:56;;;;;;;11.95;5.28;;;;;;;;;;5026282;28;20041;-69
2023/04/16 10:19:23;;;;;;;10.63;4.70;;;;;;;;;;5025891;28;20040;-69
2023/04/16 10:21:49;;;;;;;9.40;5.00;;;;;;;;;;5036613;28;20099;-69
2023/04/16 10:24:16;;;;;;;11.57;4.63;;;;;;;;;;5039771;28;20026;-69
2023/04/16 10:26:42;;;;;;;12.00;4.93;;;;;;;;;;5038921;28;20069;-69
2023/04/16 10:29:07;;;;;;;10.30;5.30;;;;;;;;;;5025803;28;20056;-69
2023/04/16 10:31:35;;;;;;;8.65;4.40;;;;;;;;;;5030520;28;20183;-69
2023/04/16 10:34:01;;;;;;;11.63;6.18;;;;;;;;;;5034856;28;20032;-68
2023/04/16 10:36:27;;;;;;;13.20;5.22;;;;;;;;;;5034881;28;20026;-68
2023/04/16 10:38:59;;;;;;;9.80;4.20;;;;;;;;;;5040022;28;20017;-68
2023/04/16 10:41:25;;;;;;;9.40;4.82;;;;;;;;;;5036040;28;20029;-69
2023/04/16 10:43:51;;;;;;;8.05;4.63;;;;;;;;;;5036215;28;20029;-68
2023/04/16 10:46:21;;;;;;;9.55;5.10;;;;;;;;;;5031674;28;20037;-68
2023/04/16 10:48:48;;;;;;;15.05;4.70;;;;;;;;;;5038741;28;20640;-68
2023/04/16 10:51:32;;;;;;;8.48;4.82;;;;;;;;;;5033906;28;20017;-68
2023/04/16 10:54:20;;;;;;;12.05;5.47;;;;;;;;;;5036639;28;20184;-68
2023/04/16 10:56:46;;;;;;;11.48;5.45;;;;;;;;;;5029117;28;20710;-70
2023/04/16 10:59:11;;;;;;;11.32;7.22;;;;;;;;;;5045191;28;20682;-69
2023/04/16 11:01:42;;;;;;;11.73;5.05;;;;;;;;;;5040427;28;20537;-69
2023/04/16 11:04:20;;;;;;;16.52;8.18;;;;;;;;;;5035899;28;20060;-69
2023/04/16 11:07:10;;;;;;;20.20;7.63;;;;;;;;;;5039425;28;20040;-69
2023/04/16 11:09:51;;;;;;;15.02;6.18;;;;;;;;;;5041900;28;20022;-69
2023/04/16 11:12:38;;;;;;;19.08;6.78;;;;;;;;;;5045111;28;20026;-69
2023/04/16 11:15:08;;;;;;;28.60;9.88;;;;;;;;;;5039449;28;20029;-69
2023/04/16 11:17:45;;;;;;;27.73;10.13;;;;;;;;;;5034548;28;20422;-69
2023/04/16 11:20:21;;;;;;;21.80;9.10;;;;;;;;;;5038079;28;20068;-69
2023/04/16 11:22:51;;;;;;;24.15;9.55;;;;;;;;;;5035933;28;20032;-69
2023/04/16 11:25:24;;;;;;;22.35;9.40;;;;;;;;;;5040836;28;20114;-70
2023/04/16 11:27:50;;;;;;;21.13;9.93;;;;;;;;;;5037226;28;20037;-69
2023/04/16 11:30:16;;;;;;;16.00;6.68;;;;;;;;;;5041038;28;20535;-69
2023/04/16 11:32:43;;;;;;;23.08;8.90;;;;;;;;;;5040956;28;20128;-69
2023/04/16 11:35:18;;;;;;;21.23;9.00;;;;;;;;;;5039826;28;20052;-69
2023/04/16 11:37:45;;;;;;;20.20;8.00;;;;;;;;;;5041083;28;20861;-69
2023/04/16 11:40:11;;;;;;;20.55;8.30;;;;;;;;;;5034008;28;20091;-69
2023/04/16 11:42:41;;;;;;;19.20;8.20;;;;;;;;;;5029668;28;20035;-69
2023/04/16 11:45:08;;;;;;;15.88;7.03;;;;;;;;;;5038508;28;20728;-69
2023/04/16 11:47:52;;;;;;;14.10;7.45;;;;;;;;;;5032242;28;20115;-69
2023/04/16 11:50:21;;;;;;;;;;;;;;;;;;5036969;28;20083;-69
2023/04/16 11:52:47;;;;;;;16.23;7.30;;;;;;;;;;5037839;28;19924;-69
2023/04/16 11:55:13;;;;;;;17.48;8.13;;;;;;;;;;5039406;28;20037;-69
2023/04/16 11:57:38;;;;;;;15.15;7.05;;;;;;;;;;5040644;28;20027;-69
2023/04/16 12:00:05;;;;;;;18.33;7.60;;;;;;;;;;5034368;28;20029;-69
2023/04/16 12:02:36;;;;;;;18.08;7.03;;;;;;;;;;5041024;28;20033;-69
2023/04/16 12:05:24;;;;;;;15.02;6.97;;;;;;;;;;5037176;28;20045;-69
2023/04/16 12:07:49;;;;;;;12.52;6.53;;;;;;;;;;5032873;28;20511;-69
2023/04/16 12:10:16;;;;;;;15.02;6.50;;;;;;;;;;5038170;28;20052;-69
2023/04/16 12:12:41;;;;;;;15.30;6.55;;;;;;;;;;5038171;28;20106;-69
2023/04/16 12:15:07;;;;;;;12.52;5.57;;;;;;;;;;5039392;28;20590;-69
2023/04/16 12:17:34;;;;;;;11.02;6.00;;;;;;;;;;5034894;28;20041;-69
2023/04/16 12:20:11;;;;;;;14.75;6.90;;;;;;;;;;5036874;28;20037;-69
2023/04/16 12:22:38;;;;;;;11.90;6.55;;;;;;;;;;5034584;28;20040;-69
2023/04/16 12:25:05;;;;;;;16.63;7.45;;;;;;;;;;5032717;28;20045;-69
2023/04/16 12:27:46;;;;;;;14.85;6.35;;;;;;;;;;5030673;28;20036;-69
2023/04/16 12:30:13;;;;;;;15.77;6.65;;;;;;;;;;5034632;28;20029;-69
2023/04/16 12:32:40;;;;;;;14.80;6.97;;;;;;;;;;5042575;28;20057;-69
2023/04/16 12:35:06;;;;;;;17.35;7.20;;;;;;;;;;5046945;28;20622;-69
2023/04/16 12:37:31;;;;;;;21.63;7.85;;;;;;;;;;5035531;28;20151;-69
2023/04/16 12:39:56;;;;;;;21.17;9.07;;;;;;;;;;5035786;28;20135;-69
2023/04/16 12:42:22;;;;;;;19.67;8.23;;;;;;;;;;5039297;28;20068;-69
2023/04/16 12:44:47;;;;;;;21.45;10.35;;;;;;;;;;5037056;28;20107;-68
2023/04/16 12:47:13;;;;;;;22.48;8.85;;;;;;;;;;5034609;28;20091;-69
2023/04/16 12:49:38;;;;;;;21.25;9.20;;;;;;;;;;5030734;28;20534;-69
2023/04/16 12:52:03;;;;;;;18.02;8.93;;;;;;;;;;5033095;28;20099;-69
2023/04/16 12:54:30;;;;;;;24.45;8.52;;;;;;;;;;5039664;28;20104;-69
2023/04/16 12:56:56;;;;;;;24.63;9.25;;;;;;;;;;5030475;28;20595;-69
2023/04/16 12:59:22;;;;;;;22.42;9.35;;;;;;;;;;5035454;28;20072;-69
2023/04/16 13:01:47;;;;;;;27.08;9.80;;;;;;;;;;5039978;28;20076;-69
2023/04/16 13:04:12;;;;;;;27.77;9.90;;;;;;;;;;5032499;28;20075;-69
2023/04/16 13:06:38;;;;;;;22.70;9.65;;;;;;;;;;5042804;28;20029;-69
2023/04/16 13:09:04;;;;;;;29.33;11.40;;;;;;;;;;5041863;28;20047;-68
2023/04/16 13:11:29;;;;;;;26.80;11.55;;;;;;;;;;5031584;28;20029;-68
2023/04/16 13:13:55;;;;;;;28.40;11.13;;;;;;;;;;5035206;28;20384;-68
2023/04/16 13:16:20;;;;;;;28.15;11.10;;;;;;;;;;5040350;28;20160;-68
2023/04/16 13:18:45;;;;;;;29.85;11.18;;;;;;;;;;5038620;28;20390;-68
2023/04/16 13:21:11;;;;;;;30.83;11.15;;;;;;;;;;5035759;28;20025;-68
2023/04/16 13:23:36;;;;;;;32.63;10.88;;;;;;;;;;5038788;28;20041;-68
2023/04/16 13:26:02;;;;;;;26.48;10.50;;;;;;;;;;5045467;28;20033;-68
2023/04/16 13:28:27;;;;;;;27.50;10.23;;;;;;;;;;5044479;28;20033;-68
2023/04/16 13:30:53;;;;;;;28.20;10.93;;;;;;;;;;5038054;28;20033;-67
2023/04/16 13:33:19;;;;;;;30.05;11.15;;;;;;;;;;5031118;28;20037;-68
2023/04/16 13:35:45;;;;;;;33.08;11.50;;;;;;;;;;5030470;28;20151;-68
2023/04/16 13:38:11;;;;;;;28.63;10.15;;;;;;;;;;5043269;28;20852;-68
2023/04/16 13:40:36;;;;;;;25.42;9.68;;;;;;;;;;5034753;28;20045;-68
2023/04/16 13:43:02;;;;;;;30.17;10.38;;;;;;;;;;5043785;28;20041;-68
2023/04/16 13:45:27;;;;;;;27.00;9.77;;;;;;;;;;5038625;28;20024;-68
2023/04/16 13:47:54;;;;;;;24.52;8.65;;;;;;;;;;5039041;28;20032;-68
2023/04/16 13:50:19;;;;;;;25.83;9.98;;;;;;;;;;5041136;28;20067;-68
2023/04/16 13:52:44;;;;;;;23.35;9.32;;;;;;;;;;5040070;28;20041;-68
2023/04/16 13:55:12;;;;;;;29.23;11.15;;;;;;;;;;5046157;28;20039;-68
2023/04/16 13:57:39;;;;;;;27.85;10.15;;;;;;;;;;5045451;28;20017;-68
2023/04/16 14:00:05;;;;;;;24.08;9.45;;;;;;;;;;5039280;28;20033;-68
2023/04/16 14:02:31;;;;;;;25.88;10.48;;;;;;;;;;5036466;28;20037;-68
2023/04/16 14:04:56;;;;;;;26.80;11.05;;;;;;;;;;5038160;28;20053;-68
2023/04/16 14:07:25;;;;;;;31.30;12.85;;;;;;;;;;5031368;28;20148;-68
2023/04/16 14:09:50;;;;;;;28.27;9.32;;;;;;;;;;5022991;28;20094;-68
2023/04/16 14:12:15;;;;;;;29.17;11.57;;;;;;;;;;5034865;28;20029;-68
2023/04/16 14:14:41;;;;;;;24.48;9.95;;;;;;;;;;5031891;28;20037;-68
2023/04/16 14:17:06;;;;;;;26.40;10.30;;;;;;;;;;5033448;28;20059;-68
2023/04/16 14:19:31;;;;;;;22.55;9.02;;;;;;;;;;5038718;28;20037;-68
2023/04/16 14:21:57;;;;;;;25.02;9.07;;;;;;;;;;5035162;28;20057;-69
2023/04/16 14:24:22;;;;;;;26.58;10.10;;;;;;;;;;5038176;28;20037;-68
2023/04/16 14:26:47;;;;;;;28.25;10.88;;;;;;;;;;5035940;28;20025;-69
2023/04/16 14:29:12;;;;;;;26.58;10.48;;;;;;;;;;5040516;28;20037;-68